sensor_id;sensor_type;location;lat;lon;timestamp;temperature;humidity
22698;DHT22;11516;51.612;7.510;2022-10-10T00:00:38;7.70;99.90
22698;DHT22;11516;51.612;7.510;2022-10-10T00:03:05;7.70;99.90
22698;DHT22;11516;51.612;7.510;2022-10-10T00:05:30;7.60;99.90
22698;DHT22;11516;51.612;7.510;2022-10-10T00:07:56;7.60;99.90
22698;DHT22;11516;51.612;7.510;2022-10-10T00:10:22;7.60;99.90
22698;DHT22;11516;51.612;7.510;2022-10-10T00:12:48;7.60;99.90
22698;DHT22;11516;51.612;7.510;2022-10-10T00:15:14;7.60;99.90
22698;DHT22;11516;51.612;7.510;2022-10-10T00:17:40;7.60;99.90
22698;DHT22;11516;51.612;7.510;2022-10-10T00:20:12;7.60;99.90
22698;DHT22;11516;51.612;7.510;2022-10-10T00:22:38;7.60;99.90
22698;DHT22;11516;51.612;7.510;2022-10-10T00:25:05;7.60;99.90
22698;DHT22;11516;51.612;7.510;2022-10-10T00:27:31;7.50;99.90
22698;DHT22;11516;51.612;7.510;2022-10-10T00:29:57;7.50;99.90
22698;DHT22;11516;51.612;7.510;2022-10-10T00:32:23;7.50;99.90
22698;DHT22;11516;51.612;7.510;2022-10-10T00:34:48;7.50;99.90
22698;DHT22;11516;51.612;7.510;2022-10-10T00:37:14;7.50;99.90
22698;DHT22;11516;51.612;7.510;2022-10-10T00:39:39;7.40;99.90
22698;DHT22;11516;51.612;7.510;2022-10-10T00:42:05;7.40;99.90
22698;DHT22;11516;51.612;7.510;2022-10-10T00:44:31;7.40;99.90
22698;DHT22;11516;51.612;7.510;2022-10-10T00:46:56;7.30;99.90
22698;DHT22;11516;51.612;7.510;2022-10-10T00:49:25;7.30;99.90
22698;DHT22;11516;51.612;7.510;2022-10-10T00:51:54;7.30;99.90
22698;DHT22;11516;51.612;7.510;2022-10-10T00:54:22;7.30;99.90
22698;DHT22;11516;51.612;7.510;2022-10-10T00:57:04;7.30;99.90
22698;DHT22;11516;51.612;7.510;2022-10-10T00:59:33;7.20;99.90
22698;DHT22;11516;51.612;7.510;2022-10-10T01:01:59;7.20;99.90
22698;DHT22;11516;51.612;7.510;2022-10-10T01:04:35;7.20;99.90
22698;DHT22;11516;51.612;7.510;2022-10-10T01:07:05;7.20;99.90
22698;DHT22;11516;51.612;7.510;2022-10-10T01:09:32;7.20;99.90
22698;DHT22;11516;51.612;7.510;2022-10-10T01:12:24;7.20;99.90
22698;DHT22;11516;51.612;7.510;2022-10-10T01:15:19;7.20;99.90
22698;DHT22;11516;51.612;7.510;2022-10-10T01:18:03;7.10;99.90
22698;DHT22;11516;51.612;7.510;2022-10-10T01:28:55;7.00;99.90
22698;DHT22;11516;51.612;7.510;2022-10-10T01:31:24;7.00;99.90
22698;DHT22;11516;51.612;7.510;2022-10-10T01:39:34;7.00;99.90
22698;DHT22;11516;51.612;7.510;2022-10-10T01:42:24;6.90;99.90
22698;DHT22;11516;51.612;7.510;2022-10-10T01:44:52;6.90;99.90
22698;DHT22;11516;51.612;7.510;2022-10-10T01:47:19;6.80;99.90
22698;DHT22;11516;51.612;7.510;2022-10-10T01:49:48;6.80;99.90
22698;DHT22;11516;51.612;7.510;2022-10-10T01:52:40;6.80;99.90
22698;DHT22;11516;51.612;7.510;2022-10-10T01:55:44;6.80;99.90
22698;DHT22;11516;51.612;7.510;2022-10-10T02:00:51;6.80;99.90
22698;DHT22;11516;51.612;7.510;2022-10-10T02:03:23;6.80;99.90
22698;DHT22;11516;51.612;7.510;2022-10-10T02:10:55;6.80;99.90
22698;DHT22;11516;51.612;7.510;2022-10-10T02:13:27;6.80;99.90
22698;DHT22;11516;51.612;7.510;2022-10-10T02:15:54;6.80;99.90
22698;DHT22;11516;51.612;7.510;2022-10-10T02:18:28;6.80;99.90
22698;DHT22;11516;51.612;7.510;2022-10-10T02:20:56;6.70;99.90
22698;DHT22;11516;51.612;7.510;2022-10-10T02:23:22;6.70;99.90
22698;DHT22;11516;51.612;7.510;2022-10-10T02:25:52;6.70;99.90
22698;DHT22;11516;51.612;7.510;2022-10-10T02:28:32;6.70;99.90
22698;DHT22;11516;51.612;7.510;2022-10-10T02:31:06;6.70;99.90
22698;DHT22;11516;51.612;7.510;2022-10-10T02:33:43;6.70;99.90
22698;DHT22;11516;51.612;7.510;2022-10-10T02:36:09;6.70;99.90
22698;DHT22;11516;51.612;7.510;2022-10-10T02:38:35;6.70;99.90
22698;DHT22;11516;51.612;7.510;2022-10-10T02:41:02;6.70;99.90
22698;DHT22;11516;51.612;7.510;2022-10-10T02:43:31;6.70;99.90
22698;DHT22;11516;51.612;7.510;2022-10-10T02:46:01;6.70;99.90
22698;DHT22;11516;51.612;7.510;2022-10-10T02:48:28;6.70;99.90
22698;DHT22;11516;51.612;7.510;2022-10-10T02:50:55;6.60;99.90
22698;DHT22;11516;51.612;7.510;2022-10-10T02:53:20;6.70;99.90
22698;DHT22;11516;51.612;7.510;2022-10-10T02:55:46;6.70;99.90
22698;DHT22;11516;51.612;7.510;2022-10-10T02:58:11;6.60;99.90
22698;DHT22;11516;51.612;7.510;2022-10-10T03:00:38;6.60;99.90
22698;DHT22;11516;51.612;7.510;2022-10-10T03:03:04;6.60;99.90
22698;DHT22;11516;51.612;7.510;2022-10-10T03:05:29;6.60;99.90
22698;DHT22;11516;51.612;7.510;2022-10-10T03:07:55;6.60;99.90
22698;DHT22;11516;51.612;7.510;2022-10-10T03:10:20;6.50;99.90
22698;DHT22;11516;51.612;7.510;2022-10-10T03:12:46;6.50;99.90
22698;DHT22;11516;51.612;7.510;2022-10-10T03:15:11;6.40;99.90
22698;DHT22;11516;51.612;7.510;2022-10-10T03:17:37;6.50;99.90
22698;DHT22;11516;51.612;7.510;2022-10-10T03:20:03;6.50;99.90
22698;DHT22;11516;51.612;7.510;2022-10-10T03:22:28;6.50;99.90
22698;DHT22;11516;51.612;7.510;2022-10-10T03:24:54;6.50;99.90
22698;DHT22;11516;51.612;7.510;2022-10-10T03:27:19;6.60;99.90
22698;DHT22;11516;51.612;7.510;2022-10-10T03:29:45;6.40;99.90
22698;DHT22;11516;51.612;7.510;2022-10-10T03:32:10;6.40;99.90
22698;DHT22;11516;51.612;7.510;2022-10-10T03:34:36;6.40;99.90
22698;DHT22;11516;51.612;7.510;2022-10-10T03:37:01;6.40;99.90
22698;DHT22;11516;51.612;7.510;2022-10-10T03:39:27;6.40;99.90
22698;DHT22;11516;51.612;7.510;2022-10-10T03:41:53;6.40;99.90
22698;DHT22;11516;51.612;7.510;2022-10-10T03:44:18;6.40;99.90
22698;DHT22;11516;51.612;7.510;2022-10-10T03:46:43;6.40;99.90
22698;DHT22;11516;51.612;7.510;2022-10-10T03:49:09;6.40;99.90
22698;DHT22;11516;51.612;7.510;2022-10-10T03:51:35;6.40;99.90
22698;DHT22;11516;51.612;7.510;2022-10-10T03:54:00;6.40;99.90
22698;DHT22;11516;51.612;7.510;2022-10-10T03:56:26;6.40;99.90
22698;DHT22;11516;51.612;7.510;2022-10-10T03:58:51;6.30;99.90
22698;DHT22;11516;51.612;7.510;2022-10-10T04:01:17;6.40;99.90
22698;DHT22;11516;51.612;7.510;2022-10-10T04:03:42;6.30;99.90
22698;DHT22;11516;51.612;7.510;2022-10-10T04:06:08;6.30;99.90
22698;DHT22;11516;51.612;7.510;2022-10-10T04:08:33;6.40;99.90
22698;DHT22;11516;51.612;7.510;2022-10-10T04:10:59;6.30;99.90
22698;DHT22;11516;51.612;7.510;2022-10-10T04:13:25;6.30;99.90
22698;DHT22;11516;51.612;7.510;2022-10-10T04:15:53;6.30;99.90
22698;DHT22;11516;51.612;7.510;2022-10-10T04:18:19;6.30;99.90
22698;DHT22;11516;51.612;7.510;2022-10-10T04:20:45;6.30;99.90
22698;DHT22;11516;51.612;7.510;2022-10-10T04:23:10;6.30;99.90
22698;DHT22;11516;51.612;7.510;2022-10-10T04:25:36;6.30;99.90
22698;DHT22;11516;51.612;7.510;2022-10-10T04:28:01;6.40;99.90
22698;DHT22;11516;51.612;7.510;2022-10-10T04:30:32;6.40;99.90
22698;DHT22;11516;51.612;7.510;2022-10-10T04:32:57;6.40;99.90
22698;DHT22;11516;51.612;7.510;2022-10-10T04:35:23;6.40;99.90
22698;DHT22;11516;51.612;7.510;2022-10-10T04:37:48;6.50;99.90
22698;DHT22;11516;51.612;7.510;2022-10-10T04:40:14;6.40;99.90
22698;DHT22;11516;51.612;7.510;2022-10-10T04:42:39;6.40;99.90
22698;DHT22;11516;51.612;7.510;2022-10-10T04:45:05;6.30;99.90
22698;DHT22;11516;51.612;7.510;2022-10-10T04:47:31;6.30;99.90
22698;DHT22;11516;51.612;7.510;2022-10-10T04:49:57;6.30;99.90
22698;DHT22;11516;51.612;7.510;2022-10-10T04:52:22;6.30;99.90
22698;DHT22;11516;51.612;7.510;2022-10-10T04:54:48;6.40;99.90
22698;DHT22;11516;51.612;7.510;2022-10-10T04:57:13;6.30;99.90
22698;DHT22;11516;51.612;7.510;2022-10-10T04:59:39;6.30;99.90
22698;DHT22;11516;51.612;7.510;2022-10-10T05:02:04;6.40;99.90
22698;DHT22;11516;51.612;7.510;2022-10-10T05:04:30;6.30;99.90
22698;DHT22;11516;51.612;7.510;2022-10-10T05:06:56;6.30;99.90
22698;DHT22;11516;51.612;7.510;2022-10-10T05:09:22;6.40;99.90
22698;DHT22;11516;51.612;7.510;2022-10-10T05:11:47;6.30;99.90
22698;DHT22;11516;51.612;7.510;2022-10-10T05:14:13;6.30;99.90
22698;DHT22;11516;51.612;7.510;2022-10-10T05:16:38;6.30;99.90
22698;DHT22;11516;51.612;7.510;2022-10-10T05:19:04;6.40;99.90
22698;DHT22;11516;51.612;7.510;2022-10-10T05:21:29;6.40;99.90
22698;DHT22;11516;51.612;7.510;2022-10-10T05:23:56;6.40;99.90
22698;DHT22;11516;51.612;7.510;2022-10-10T05:26:21;6.40;99.90
22698;DHT22;11516;51.612;7.510;2022-10-10T05:28:47;6.30;99.90
22698;DHT22;11516;51.612;7.510;2022-10-10T05:31:12;6.30;99.90
22698;DHT22;11516;51.612;7.510;2022-10-10T05:33:38;6.30;99.90
22698;DHT22;11516;51.612;7.510;2022-10-10T05:36:09;6.40;99.90
22698;DHT22;11516;51.612;7.510;2022-10-10T05:38:36;6.40;99.90
22698;DHT22;11516;51.612;7.510;2022-10-10T05:41:02;6.30;99.90
22698;DHT22;11516;51.612;7.510;2022-10-10T05:43:28;6.30;99.90
22698;DHT22;11516;51.612;7.510;2022-10-10T05:45:54;6.40;99.90
22698;DHT22;11516;51.612;7.510;2022-10-10T05:48:20;6.50;99.90
22698;DHT22;11516;51.612;7.510;2022-10-10T05:51:00;6.50;99.90
22698;DHT22;11516;51.612;7.510;2022-10-10T05:53:27;6.40;99.90
22698;DHT22;11516;51.612;7.510;2022-10-10T05:55:53;6.40;99.90
22698;DHT22;11516;51.612;7.510;2022-10-10T05:58:19;6.40;99.90
22698;DHT22;11516;51.612;7.510;2022-10-10T06:00:46;6.40;99.90
22698;DHT22;11516;51.612;7.510;2022-10-10T06:03:12;6.40;99.90
22698;DHT22;11516;51.612;7.510;2022-10-10T06:05:42;6.50;99.90
22698;DHT22;11516;51.612;7.510;2022-10-10T06:08:08;6.50;99.90
22698;DHT22;11516;51.612;7.510;2022-10-10T06:10:38;6.50;99.90
22698;DHT22;11516;51.612;7.510;2022-10-10T06:13:04;6.60;99.90
22698;DHT22;11516;51.612;7.510;2022-10-10T06:15:29;6.60;99.90
22698;DHT22;11516;51.612;7.510;2022-10-10T06:17:55;6.60;99.90
22698;DHT22;11516;51.612;7.510;2022-10-10T06:20:21;6.60;99.90
22698;DHT22;11516;51.612;7.510;2022-10-10T06:22:46;6.60;99.90
22698;DHT22;11516;51.612;7.510;2022-10-10T06:25:12;6.70;99.90
22698;DHT22;11516;51.612;7.510;2022-10-10T06:27:37;6.80;99.90
22698;DHT22;11516;51.612;7.510;2022-10-10T06:30:04;6.80;99.90
22698;DHT22;11516;51.612;7.510;2022-10-10T06:32:29;6.80;99.90
22698;DHT22;11516;51.612;7.510;2022-10-10T06:34:55;6.90;99.90
22698;DHT22;11516;51.612;7.510;2022-10-10T06:37:21;7.00;99.90
22698;DHT22;11516;51.612;7.510;2022-10-10T06:39:46;7.10;99.90
22698;DHT22;11516;51.612;7.510;2022-10-10T06:42:12;7.10;99.90
22698;DHT22;11516;51.612;7.510;2022-10-10T06:44:37;7.20;99.90
22698;DHT22;11516;51.612;7.510;2022-10-10T06:47:03;7.20;99.90
22698;DHT22;11516;51.612;7.510;2022-10-10T06:49:28;7.30;99.90
22698;DHT22;11516;51.612;7.510;2022-10-10T06:51:54;7.40;99.90
22698;DHT22;11516;51.612;7.510;2022-10-10T06:54:20;7.50;99.90
22698;DHT22;11516;51.612;7.510;2022-10-10T06:56:45;7.60;99.90
22698;DHT22;11516;51.612;7.510;2022-10-10T06:59:11;7.60;99.90
22698;DHT22;11516;51.612;7.510;2022-10-10T07:01:36;7.70;99.90
22698;DHT22;11516;51.612;7.510;2022-10-10T07:04:02;7.90;99.90
22698;DHT22;11516;51.612;7.510;2022-10-10T07:06:28;7.90;99.90
22698;DHT22;11516;51.612;7.510;2022-10-10T07:08:53;8.10;99.90
22698;DHT22;11516;51.612;7.510;2022-10-10T07:11:19;8.20;99.90
22698;DHT22;11516;51.612;7.510;2022-10-10T07:13:45;8.30;99.90
22698;DHT22;11516;51.612;7.510;2022-10-10T07:16:10;8.40;99.90
22698;DHT22;11516;51.612;7.510;2022-10-10T07:18:36;8.50;99.90
22698;DHT22;11516;51.612;7.510;2022-10-10T07:21:02;8.60;99.90
22698;DHT22;11516;51.612;7.510;2022-10-10T07:23:28;8.80;99.90
22698;DHT22;11516;51.612;7.510;2022-10-10T07:26:04;9.00;99.90
22698;DHT22;11516;51.612;7.510;2022-10-10T07:28:30;9.10;99.90
22698;DHT22;11516;51.612;7.510;2022-10-10T07:31:04;9.40;99.90
22698;DHT22;11516;51.612;7.510;2022-10-10T07:33:35;9.70;99.90
22698;DHT22;11516;51.612;7.510;2022-10-10T07:36:02;10.00;99.90
22698;DHT22;11516;51.612;7.510;2022-10-10T07:38:27;10.40;99.90
22698;DHT22;11516;51.612;7.510;2022-10-10T07:40:53;10.90;99.90
22698;DHT22;11516;51.612;7.510;2022-10-10T07:43:18;11.30;99.90
22698;DHT22;11516;51.612;7.510;2022-10-10T07:45:44;11.50;99.90
22698;DHT22;11516;51.612;7.510;2022-10-10T07:48:10;11.90;99.90
22698;DHT22;11516;51.612;7.510;2022-10-10T07:50:39;12.40;99.90
22698;DHT22;11516;51.612;7.510;2022-10-10T07:53:05;12.60;99.90
22698;DHT22;11516;51.612;7.510;2022-10-10T07:55:32;12.70;99.90
22698;DHT22;11516;51.612;7.510;2022-10-10T07:57:58;12.80;99.90
22698;DHT22;11516;51.612;7.510;2022-10-10T08:00:23;13.00;99.90
22698;DHT22;11516;51.612;7.510;2022-10-10T08:02:49;13.00;99.90
22698;DHT22;11516;51.612;7.510;2022-10-10T08:05:16;13.10;99.90
22698;DHT22;11516;51.612;7.510;2022-10-10T08:07:42;13.20;99.90
22698;DHT22;11516;51.612;7.510;2022-10-10T08:10:08;13.40;99.90
22698;DHT22;11516;51.612;7.510;2022-10-10T08:12:34;13.60;99.90
22698;DHT22;11516;51.612;7.510;2022-10-10T08:14:59;13.70;99.90
22698;DHT22;11516;51.612;7.510;2022-10-10T08:17:25;13.80;99.90
22698;DHT22;11516;51.612;7.510;2022-10-10T08:19:51;14.00;99.90
22698;DHT22;11516;51.612;7.510;2022-10-10T08:22:16;14.00;99.90
22698;DHT22;11516;51.612;7.510;2022-10-10T08:24:42;14.10;99.90
22698;DHT22;11516;51.612;7.510;2022-10-10T08:27:07;14.10;99.90
22698;DHT22;11516;51.612;7.510;2022-10-10T08:29:33;14.20;99.90
22698;DHT22;11516;51.612;7.510;2022-10-10T08:31:58;14.20;99.90
22698;DHT22;11516;51.612;7.510;2022-10-10T08:34:24;14.30;99.90
22698;DHT22;11516;51.612;7.510;2022-10-10T08:36:49;14.40;99.90
22698;DHT22;11516;51.612;7.510;2022-10-10T08:39:16;14.50;99.90
22698;DHT22;11516;51.612;7.510;2022-10-10T08:41:49;14.60;99.90
22698;DHT22;11516;51.612;7.510;2022-10-10T08:49:48;14.80;99.90
22698;DHT22;11516;51.612;7.510;2022-10-10T08:52:38;14.80;99.90
22698;DHT22;11516;51.612;7.510;2022-10-10T08:55:12;14.90;99.90
22698;DHT22;11516;51.612;7.510;2022-10-10T08:57:47;15.10;99.90
22698;DHT22;11516;51.612;7.510;2022-10-10T09:00:17;15.10;99.90
22698;DHT22;11516;51.612;7.510;2022-10-10T09:02:49;15.10;99.90
22698;DHT22;11516;51.612;7.510;2022-10-10T09:05:18;15.20;99.90
22698;DHT22;11516;51.612;7.510;2022-10-10T09:07:55;15.20;99.90
22698;DHT22;11516;51.612;7.510;2022-10-10T09:10:40;15.20;99.90
22698;DHT22;11516;51.612;7.510;2022-10-10T09:15:57;15.30;99.90
22698;DHT22;11516;51.612;7.510;2022-10-10T09:18:57;15.30;99.90
22698;DHT22;11516;51.612;7.510;2022-10-10T09:21:34;15.40;99.90
22698;DHT22;11516;51.612;7.510;2022-10-10T09:24:19;15.50;99.90
22698;DHT22;11516;51.612;7.510;2022-10-10T09:26:53;15.50;99.90
22698;DHT22;11516;51.612;7.510;2022-10-10T09:32:14;15.60;99.90
22698;DHT22;11516;51.612;7.510;2022-10-10T09:34:48;15.70;99.90
22698;DHT22;11516;51.612;7.510;2022-10-10T09:37:20;15.80;99.90
22698;DHT22;11516;51.612;7.510;2022-10-10T09:42:18;16.00;99.90
22698;DHT22;11516;51.612;7.510;2022-10-10T09:44:46;16.10;99.90
22698;DHT22;11516;51.612;7.510;2022-10-10T09:47:13;16.20;99.90
22698;DHT22;11516;51.612;7.510;2022-10-10T09:49:39;16.20;99.90
22698;DHT22;11516;51.612;7.510;2022-10-10T09:52:27;16.30;99.90
22698;DHT22;11516;51.612;7.510;2022-10-10T09:55:22;16.50;99.90
22698;DHT22;11516;51.612;7.510;2022-10-10T09:57:51;16.50;99.90
22698;DHT22;11516;51.612;7.510;2022-10-10T10:02:47;16.60;99.90
22698;DHT22;11516;51.612;7.510;2022-10-10T10:05:26;16.70;99.90
22698;DHT22;11516;51.612;7.510;2022-10-10T10:07:52;16.80;99.90
22698;DHT22;11516;51.612;7.510;2022-10-10T10:10:22;16.80;99.90
22698;DHT22;11516;51.612;7.510;2022-10-10T10:12:50;16.90;99.90
22698;DHT22;11516;51.612;7.510;2022-10-10T10:15:26;17.00;99.90
22698;DHT22;11516;51.612;7.510;2022-10-10T10:18:21;17.20;99.90
22698;DHT22;11516;51.612;7.510;2022-10-10T10:26:18;17.40;99.90
22698;DHT22;11516;51.612;7.510;2022-10-10T10:28:45;17.50;99.90
22698;DHT22;11516;51.612;7.510;2022-10-10T10:33:57;18.00;99.90
22698;DHT22;11516;51.612;7.510;2022-10-10T10:39:24;18.20;99.90
22698;DHT22;11516;51.612;7.510;2022-10-10T10:41:58;18.10;99.90
22698;DHT22;11516;51.612;7.510;2022-10-10T10:46:56;18.20;99.90
22698;DHT22;11516;51.612;7.510;2022-10-10T10:49:50;18.20;99.90
22698;DHT22;11516;51.612;7.510;2022-10-10T10:55:17;18.20;99.90
22698;DHT22;11516;51.612;7.510;2022-10-10T10:58:10;18.30;99.90
22698;DHT22;11516;51.612;7.510;2022-10-10T11:01:03;18.50;99.90
22698;DHT22;11516;51.612;7.510;2022-10-10T11:09:11;18.40;99.90
22698;DHT22;11516;51.612;7.510;2022-10-10T11:14:41;18.60;99.90
22698;DHT22;11516;51.612;7.510;2022-10-10T11:17:32;18.90;99.90
22698;DHT22;11516;51.612;7.510;2022-10-10T11:22:37;19.00;99.90
22698;DHT22;11516;51.612;7.510;2022-10-10T11:27:58;19.40;99.90
22698;DHT22;11516;51.612;7.510;2022-10-10T11:30:30;19.40;99.90
22698;DHT22;11516;51.612;7.510;2022-10-10T11:33:17;19.70;99.90
22698;DHT22;11516;51.612;7.510;2022-10-10T11:35:52;20.30;99.90
22698;DHT22;11516;51.612;7.510;2022-10-10T11:38:34;20.40;99.90
22698;DHT22;11516;51.612;7.510;2022-10-10T11:43:53;19.90;99.90
22698;DHT22;11516;51.612;7.510;2022-10-10T11:49:21;20.40;99.90
22698;DHT22;11516;51.612;7.510;2022-10-10T11:54:45;20.60;99.50
22698;DHT22;11516;51.612;7.510;2022-10-10T11:57:20;20.60;98.20
22698;DHT22;11516;51.612;7.510;2022-10-10T11:59:54;20.80;97.50
22698;DHT22;11516;51.612;7.510;2022-10-10T12:02:26;20.80;96.90
22698;DHT22;11516;51.612;7.510;2022-10-10T12:04:55;20.70;95.60
22698;DHT22;11516;51.612;7.510;2022-10-10T12:07:53;20.40;96.50
22698;DHT22;11516;51.612;7.510;2022-10-10T12:10:30;20.00;95.80
22698;DHT22;11516;51.612;7.510;2022-10-10T12:13:17;19.90;96.30
22698;DHT22;11516;51.612;7.510;2022-10-10T12:15:43;20.10;96.10
22698;DHT22;11516;51.612;7.510;2022-10-10T12:18:30;20.30;96.50
22698;DHT22;11516;51.612;7.510;2022-10-10T12:21:05;20.50;94.80
22698;DHT22;11516;51.612;7.510;2022-10-10T12:23:31;20.70;94.80
22698;DHT22;11516;51.612;7.510;2022-10-10T12:25:58;20.90;93.90
22698;DHT22;11516;51.612;7.510;2022-10-10T12:44:41;20.60;95.00
22698;DHT22;11516;51.612;7.510;2022-10-10T12:47:18;20.10;96.50
22698;DHT22;11516;51.612;7.510;2022-10-10T12:49:51;19.90;97.20
22698;DHT22;11516;51.612;7.510;2022-10-10T12:52:45;20.10;96.90
22698;DHT22;11516;51.612;7.510;2022-10-10T12:55:30;20.40;97.00
22698;DHT22;11516;51.612;7.510;2022-10-10T12:57:59;20.40;96.90
22698;DHT22;11516;51.612;7.510;2022-10-10T13:00:41;20.30;97.10
22698;DHT22;11516;51.612;7.510;2022-10-10T13:03:34;20.10;97.70
22698;DHT22;11516;51.612;7.510;2022-10-10T13:08:40;19.50;99.90
22698;DHT22;11516;51.612;7.510;2022-10-10T13:11:07;19.50;99.90
22698;DHT22;11516;51.612;7.510;2022-10-10T13:13:33;19.60;99.90
22698;DHT22;11516;51.612;7.510;2022-10-10T13:18:55;19.90;99.90
22698;DHT22;11516;51.612;7.510;2022-10-10T13:23:55;19.80;99.90
22698;DHT22;11516;51.612;7.510;2022-10-10T13:26:23;19.90;99.90
22698;DHT22;11516;51.612;7.510;2022-10-10T13:28:52;19.60;99.90
22698;DHT22;11516;51.612;7.510;2022-10-10T13:31:18;19.50;99.90
22698;DHT22;11516;51.612;7.510;2022-10-10T13:33:44;20.00;99.90
22698;DHT22;11516;51.612;7.510;2022-10-10T13:36:20;20.20;99.90
22698;DHT22;11516;51.612;7.510;2022-10-10T13:38:47;20.30;99.90
22698;DHT22;11516;51.612;7.510;2022-10-10T13:41:17;20.30;99.90
22698;DHT22;11516;51.612;7.510;2022-10-10T13:43:43;20.20;99.90
22698;DHT22;11516;51.612;7.510;2022-10-10T13:46:27;20.00;99.90
22698;DHT22;11516;51.612;7.510;2022-10-10T13:48:53;19.80;99.90
22698;DHT22;11516;51.612;7.510;2022-10-10T13:51:19;19.90;99.90
22698;DHT22;11516;51.612;7.510;2022-10-10T13:53:51;19.90;99.90
22698;DHT22;11516;51.612;7.510;2022-10-10T13:56:33;20.10;99.90
22698;DHT22;11516;51.612;7.510;2022-10-10T14:01:43;20.50;99.90
22698;DHT22;11516;51.612;7.510;2022-10-10T14:06:47;21.20;99.90
22698;DHT22;11516;51.612;7.510;2022-10-10T14:11:48;22.30;96.80
22698;DHT22;11516;51.612;7.510;2022-10-10T14:14:24;22.10;96.20
22698;DHT22;11516;51.612;7.510;2022-10-10T14:17:00;21.70;97.30
22698;DHT22;11516;51.612;7.510;2022-10-10T14:19:26;21.50;97.40
22698;DHT22;11516;51.612;7.510;2022-10-10T14:21:52;20.70;98.90
22698;DHT22;11516;51.612;7.510;2022-10-10T14:24:18;20.30;99.90
22698;DHT22;11516;51.612;7.510;2022-10-10T14:26:43;20.10;99.90
22698;DHT22;11516;51.612;7.510;2022-10-10T14:29:13;19.80;99.90
22698;DHT22;11516;51.612;7.510;2022-10-10T14:31:40;19.60;99.90
22698;DHT22;11516;51.612;7.510;2022-10-10T14:34:11;19.50;99.90
22698;DHT22;11516;51.612;7.510;2022-10-10T14:36:43;19.30;99.90
22698;DHT22;11516;51.612;7.510;2022-10-10T14:39:12;19.30;99.90
22698;DHT22;11516;51.612;7.510;2022-10-10T14:41:37;19.20;99.90
22698;DHT22;11516;51.612;7.510;2022-10-10T14:44:03;19.20;99.90
22698;DHT22;11516;51.612;7.510;2022-10-10T14:46:28;19.20;99.90
22698;DHT22;11516;51.612;7.510;2022-10-10T14:48:54;19.10;99.90
22698;DHT22;11516;51.612;7.510;2022-10-10T14:51:19;19.30;99.90
22698;DHT22;11516;51.612;7.510;2022-10-10T14:53:45;19.80;99.90
22698;DHT22;11516;51.612;7.510;2022-10-10T14:56:11;20.30;99.90
22698;DHT22;11516;51.612;7.510;2022-10-10T14:58:36;20.80;99.90
22698;DHT22;11516;51.612;7.510;2022-10-10T15:01:02;20.70;99.00
22698;DHT22;11516;51.612;7.510;2022-10-10T15:03:28;20.30;99.60
22698;DHT22;11516;51.612;7.510;2022-10-10T15:05:53;20.00;99.90
22698;DHT22;11516;51.612;7.510;2022-10-10T15:08:19;19.90;99.90
22698;DHT22;11516;51.612;7.510;2022-10-10T15:10:45;19.60;99.90
22698;DHT22;11516;51.612;7.510;2022-10-10T15:13:11;19.20;99.90
22698;DHT22;11516;51.612;7.510;2022-10-10T15:15:37;19.10;99.90
22698;DHT22;11516;51.612;7.510;2022-10-10T15:18:03;19.00;99.90
22698;DHT22;11516;51.612;7.510;2022-10-10T15:20:29;19.00;99.90
22698;DHT22;11516;51.612;7.510;2022-10-10T15:22:59;19.00;99.90
22698;DHT22;11516;51.612;7.510;2022-10-10T15:25:26;19.00;99.90
22698;DHT22;11516;51.612;7.510;2022-10-10T15:27:52;18.90;99.90
22698;DHT22;11516;51.612;7.510;2022-10-10T15:30:18;18.70;99.90
22698;DHT22;11516;51.612;7.510;2022-10-10T15:32:46;18.60;99.90
22698;DHT22;11516;51.612;7.510;2022-10-10T15:35:14;18.40;99.90
22698;DHT22;11516;51.612;7.510;2022-10-10T15:37:40;18.30;99.90
22698;DHT22;11516;51.612;7.510;2022-10-10T15:40:06;18.30;99.90
22698;DHT22;11516;51.612;7.510;2022-10-10T15:42:32;18.20;99.90
22698;DHT22;11516;51.612;7.510;2022-10-10T15:44:58;18.20;99.90
22698;DHT22;11516;51.612;7.510;2022-10-10T15:47:23;18.10;99.90
22698;DHT22;11516;51.612;7.510;2022-10-10T15:49:49;18.00;99.90
22698;DHT22;11516;51.612;7.510;2022-10-10T15:52:16;17.80;99.90
22698;DHT22;11516;51.612;7.510;2022-10-10T15:54:41;17.80;99.90
22698;DHT22;11516;51.612;7.510;2022-10-10T15:57:07;17.70;99.90
22698;DHT22;11516;51.612;7.510;2022-10-10T15:59:33;17.70;99.90
22698;DHT22;11516;51.612;7.510;2022-10-10T16:01:59;17.60;99.90
22698;DHT22;11516;51.612;7.510;2022-10-10T16:04:25;17.40;99.90
22698;DHT22;11516;51.612;7.510;2022-10-10T16:06:51;17.10;99.90
22698;DHT22;11516;51.612;7.510;2022-10-10T16:09:18;16.90;99.90
22698;DHT22;11516;51.612;7.510;2022-10-10T16:11:43;16.90;99.90
22698;DHT22;11516;51.612;7.510;2022-10-10T16:14:09;16.80;99.90
22698;DHT22;11516;51.612;7.510;2022-10-10T16:16:35;16.90;99.90
22698;DHT22;11516;51.612;7.510;2022-10-10T16:19:00;16.90;99.90
22698;DHT22;11516;51.612;7.510;2022-10-10T16:21:26;16.90;99.90
22698;DHT22;11516;51.612;7.510;2022-10-10T16:23:53;16.90;99.90
22698;DHT22;11516;51.612;7.510;2022-10-10T16:26:22;16.70;99.90
22698;DHT22;11516;51.612;7.510;2022-10-10T16:28:48;16.70;99.90
22698;DHT22;11516;51.612;7.510;2022-10-10T16:31:16;16.60;99.90
22698;DHT22;11516;51.612;7.510;2022-10-10T16:33:42;16.50;99.90
22698;DHT22;11516;51.612;7.510;2022-10-10T16:36:17;16.40;99.90
22698;DHT22;11516;51.612;7.510;2022-10-10T16:38:44;16.20;99.90
22698;DHT22;11516;51.612;7.510;2022-10-10T16:41:12;15.80;99.90
22698;DHT22;11516;51.612;7.510;2022-10-10T16:43:38;15.60;99.90
22698;DHT22;11516;51.612;7.510;2022-10-10T16:46:06;15.40;99.90
22698;DHT22;11516;51.612;7.510;2022-10-10T16:48:33;15.30;99.90
22698;DHT22;11516;51.612;7.510;2022-10-10T16:51:07;15.20;99.90
22698;DHT22;11516;51.612;7.510;2022-10-10T16:53:33;15.10;99.90
22698;DHT22;11516;51.612;7.510;2022-10-10T16:56:01;15.10;99.90
22698;DHT22;11516;51.612;7.510;2022-10-10T16:58:27;15.00;99.90
22698;DHT22;11516;51.612;7.510;2022-10-10T17:00:54;14.90;99.90
22698;DHT22;11516;51.612;7.510;2022-10-10T17:03:20;14.90;99.90
22698;DHT22;11516;51.612;7.510;2022-10-10T17:05:46;14.80;99.90
22698;DHT22;11516;51.612;7.510;2022-10-10T17:08:12;14.70;99.90
22698;DHT22;11516;51.612;7.510;2022-10-10T17:10:38;14.70;99.90
22698;DHT22;11516;51.612;7.510;2022-10-10T17:13:03;14.60;99.90
22698;DHT22;11516;51.612;7.510;2022-10-10T17:15:29;14.60;99.90
22698;DHT22;11516;51.612;7.510;2022-10-10T17:17:55;14.60;99.90
22698;DHT22;11516;51.612;7.510;2022-10-10T17:20:20;14.60;99.90
22698;DHT22;11516;51.612;7.510;2022-10-10T17:22:46;14.60;99.90
22698;DHT22;11516;51.612;7.510;2022-10-10T17:25:12;14.50;99.90
22698;DHT22;11516;51.612;7.510;2022-10-10T17:27:38;14.50;99.90
22698;DHT22;11516;51.612;7.510;2022-10-10T17:30:07;14.60;99.90
22698;DHT22;11516;51.612;7.510;2022-10-10T17:32:39;14.50;99.90
22698;DHT22;11516;51.612;7.510;2022-10-10T17:35:05;14.60;99.90
22698;DHT22;11516;51.612;7.510;2022-10-10T17:37:30;14.50;99.90